Terminal Aerodrome Forecast
Issued by NWS Mobile, AL

Home | Current Version | Previous Version | Text Only | Print | Product List | Glossary On
Versions: 1 2 3 4 5 6 7 8 9 10 11 12 13 14 15 16 17 18 19 20 21 22 23 24 25 26 27 28 29
126
FTUS44 KMOB 030545
TAFPNS
TAF
KPNS 030545Z 0306/0406 00000KT P6SM FEW023 BKN140
     FM030900 29003KT 6SM BR VCSH BKN009 OVC025
     FM031300 33006KT 6SM TSRA BR BKN015CB
     FM031900 33007KT P6SM VCTS SCT025CB BKN040=

USA.gov is the U.S. government's official web portal to all federal, state and local government web resources and services.